sensor_id;sensor_type;location;lat;lon;timestamp;P1;durP1;ratioP1;P2;durP2;ratioP2
68225;SDS011;55045;49.410;11.030;2023-04-10T00:02:41;19.63;;;9.10;;
68225;SDS011;55045;49.410;11.030;2023-04-10T00:05:45;18.63;;;8.05;;
68225;SDS011;55045;49.410;11.030;2023-04-10T00:08:50;17.30;;;7.50;;
68225;SDS011;55045;49.410;11.030;2023-04-10T00:11:54;14.60;;;7.72;;
68225;SDS011;55045;49.410;11.030;2023-04-10T00:14:57;15.10;;;7.85;;
68225;SDS011;55045;49.410;11.030;2023-04-10T00:18:00;12.10;;;7.22;;
68225;SDS011;55045;49.410;11.030;2023-04-10T00:21:04;14.32;;;7.50;;
68225;SDS011;55045;49.410;11.030;2023-04-10T00:24:10;13.77;;;7.15;;
68225;SDS011;55045;49.410;11.030;2023-04-10T00:27:13;16.13;;;7.30;;
68225;SDS011;55045;49.410;11.030;2023-04-10T00:30:17;19.52;;;8.60;;
68225;SDS011;55045;49.410;11.030;2023-04-10T00:33:21;17.20;;;8.18;;
68225;SDS011;55045;49.410;11.030;2023-04-10T00:36:25;18.77;;;9.95;;
68225;SDS011;55045;49.410;11.030;2023-04-10T00:39:30;17.85;;;8.93;;
68225;SDS011;55045;49.410;11.030;2023-04-10T00:42:33;17.30;;;7.68;;
68225;SDS011;55045;49.410;11.030;2023-04-10T00:45:37;17.17;;;7.93;;
68225;SDS011;55045;49.410;11.030;2023-04-10T00:48:43;21.50;;;9.15;;
68225;SDS011;55045;49.410;11.030;2023-04-10T00:51:46;14.55;;;7.13;;
68225;SDS011;55045;49.410;11.030;2023-04-10T00:54:52;17.80;;;8.70;;
68225;SDS011;55045;49.410;11.030;2023-04-10T00:57:56;14.02;;;7.20;;
68225;SDS011;55045;49.410;11.030;2023-04-10T01:01:00;15.15;;;7.95;;
68225;SDS011;55045;49.410;11.030;2023-04-10T01:04:05;15.52;;;6.50;;
68225;SDS011;55045;49.410;11.030;2023-04-10T01:07:10;15.95;;;7.35;;
68225;SDS011;55045;49.410;11.030;2023-04-10T01:10:28;16.48;;;7.78;;
68225;SDS011;55045;49.410;11.030;2023-04-10T01:13:42;16.60;;;7.68;;
68225;SDS011;55045;49.410;11.030;2023-04-10T01:16:54;14.25;;;6.70;;
68225;SDS011;55045;49.410;11.030;2023-04-10T01:20:04;14.85;;;7.82;;
68225;SDS011;55045;49.410;11.030;2023-04-10T01:23:19;22.42;;;9.02;;
68225;SDS011;55045;49.410;11.030;2023-04-10T01:26:50;16.00;;;8.25;;
68225;SDS011;55045;49.410;11.030;2023-04-10T01:30:06;16.55;;;7.63;;
68225;SDS011;55045;49.410;11.030;2023-04-10T01:33:15;15.10;;;8.38;;
68225;SDS011;55045;49.410;11.030;2023-04-10T01:36:23;18.08;;;8.23;;
68225;SDS011;55045;49.410;11.030;2023-04-10T01:39:30;13.77;;;8.50;;
68225;SDS011;55045;49.410;11.030;2023-04-10T01:42:40;17.55;;;8.52;;
68225;SDS011;55045;49.410;11.030;2023-04-10T01:45:50;15.30;;;8.13;;
68225;SDS011;55045;49.410;11.030;2023-04-10T01:48:55;16.70;;;8.17;;
68225;SDS011;55045;49.410;11.030;2023-04-10T01:52:01;15.90;;;8.57;;
68225;SDS011;55045;49.410;11.030;2023-04-10T01:55:07;16.73;;;8.32;;
68225;SDS011;55045;49.410;11.030;2023-04-10T01:58:18;16.38;;;7.93;;
68225;SDS011;55045;49.410;11.030;2023-04-10T02:01:24;17.23;;;8.48;;
68225;SDS011;55045;49.410;11.030;2023-04-10T02:04:32;16.15;;;7.78;;
68225;SDS011;55045;49.410;11.030;2023-04-10T02:07:38;20.30;;;8.23;;
68225;SDS011;55045;49.410;11.030;2023-04-10T02:10:50;17.83;;;8.32;;
68225;SDS011;55045;49.410;11.030;2023-04-10T02:13:59;13.45;;;7.75;;
68225;SDS011;55045;49.410;11.030;2023-04-10T02:17:07;17.70;;;9.60;;
68225;SDS011;55045;49.410;11.030;2023-04-10T02:20:13;18.63;;;8.38;;
68225;SDS011;55045;49.410;11.030;2023-04-10T02:23:20;16.77;;;8.30;;
68225;SDS011;55045;49.410;11.030;2023-04-10T02:26:25;15.85;;;7.90;;
68225;SDS011;55045;49.410;11.030;2023-04-10T02:29:29;15.13;;;7.75;;
68225;SDS011;55045;49.410;11.030;2023-04-10T02:32:33;16.10;;;8.43;;
68225;SDS011;55045;49.410;11.030;2023-04-10T02:35:37;16.05;;;7.20;;
68225;SDS011;55045;49.410;11.030;2023-04-10T02:38:41;16.65;;;8.05;;
68225;SDS011;55045;49.410;11.030;2023-04-10T02:41:46;18.40;;;8.50;;
68225;SDS011;55045;49.410;11.030;2023-04-10T02:44:50;17.08;;;8.73;;
68225;SDS011;55045;49.410;11.030;2023-04-10T02:47:55;16.25;;;7.60;;
68225;SDS011;55045;49.410;11.030;2023-04-10T02:50:59;15.02;;;7.60;;
68225;SDS011;55045;49.410;11.030;2023-04-10T02:54:03;17.38;;;8.25;;
68225;SDS011;55045;49.410;11.030;2023-04-10T02:57:08;18.50;;;8.38;;
68225;SDS011;55045;49.410;11.030;2023-04-10T03:00:13;17.10;;;8.60;;
68225;SDS011;55045;49.410;11.030;2023-04-10T03:03:45;21.85;;;8.80;;
68225;SDS011;55045;49.410;11.030;2023-04-10T03:06:57;19.48;;;8.27;;
68225;SDS011;55045;49.410;11.030;2023-04-10T03:10:01;14.32;;;8.20;;
68225;SDS011;55045;49.410;11.030;2023-04-10T03:13:04;18.35;;;8.60;;
68225;SDS011;55045;49.410;11.030;2023-04-10T03:16:09;17.98;;;8.63;;
68225;SDS011;55045;49.410;11.030;2023-04-10T03:19:15;16.00;;;7.85;;
68225;SDS011;55045;49.410;11.030;2023-04-10T03:22:18;18.77;;;8.80;;
68225;SDS011;55045;49.410;11.030;2023-04-10T03:25:22;20.23;;;9.20;;
68225;SDS011;55045;49.410;11.030;2023-04-10T03:28:26;22.67;;;10.52;;
68225;SDS011;55045;49.410;11.030;2023-04-10T03:34:58;17.58;;;8.50;;
68225;SDS011;55045;49.410;11.030;2023-04-10T03:38:02;19.67;;;9.02;;
68225;SDS011;55045;49.410;11.030;2023-04-10T03:41:05;18.88;;;8.13;;
68225;SDS011;55045;49.410;11.030;2023-04-10T03:44:09;18.02;;;9.30;;
68225;SDS011;55045;49.410;11.030;2023-04-10T03:47:13;15.38;;;8.80;;
68225;SDS011;55045;49.410;11.030;2023-04-10T03:50:23;21.27;;;9.55;;
68225;SDS011;55045;49.410;11.030;2023-04-10T03:53:32;20.90;;;9.07;;
68225;SDS011;55045;49.410;11.030;2023-04-10T03:56:41;22.02;;;9.23;;
68225;SDS011;55045;49.410;11.030;2023-04-10T03:59:45;18.55;;;9.20;;
68225;SDS011;55045;49.410;11.030;2023-04-10T04:02:48;20.60;;;9.15;;
68225;SDS011;55045;49.410;11.030;2023-04-10T04:06:19;18.08;;;9.55;;
68225;SDS011;55045;49.410;11.030;2023-04-10T04:13:33;15.48;;;7.82;;
68225;SDS011;55045;49.410;11.030;2023-04-10T04:16:45;19.95;;;9.55;;
68225;SDS011;55045;49.410;11.030;2023-04-10T04:20:08;19.17;;;9.57;;
68225;SDS011;55045;49.410;11.030;2023-04-10T04:23:18;16.52;;;8.23;;
68225;SDS011;55045;49.410;11.030;2023-04-10T04:26:47;18.60;;;9.50;;
68225;SDS011;55045;49.410;11.030;2023-04-10T04:30:11;15.20;;;7.97;;
68225;SDS011;55045;49.410;11.030;2023-04-10T04:33:29;18.77;;;8.65;;
68225;SDS011;55045;49.410;11.030;2023-04-10T04:36:35;21.95;;;9.18;;
68225;SDS011;55045;49.410;11.030;2023-04-10T04:40:15;16.75;;;8.65;;
68225;SDS011;55045;49.410;11.030;2023-04-10T04:43:51;17.45;;;7.93;;
68225;SDS011;55045;49.410;11.030;2023-04-10T04:47:16;22.45;;;8.73;;
68225;SDS011;55045;49.410;11.030;2023-04-10T04:50:38;20.30;;;9.48;;
68225;SDS011;55045;49.410;11.030;2023-04-10T04:54:00;19.85;;;9.10;;
68225;SDS011;55045;49.410;11.030;2023-04-10T04:57:11;15.75;;;8.07;;
68225;SDS011;55045;49.410;11.030;2023-04-10T05:00:27;25.30;;;9.17;;
68225;SDS011;55045;49.410;11.030;2023-04-10T05:03:38;17.60;;;9.15;;
68225;SDS011;55045;49.410;11.030;2023-04-10T05:07:00;15.32;;;8.23;;
68225;SDS011;55045;49.410;11.030;2023-04-10T05:10:30;17.88;;;8.55;;
68225;SDS011;55045;49.410;11.030;2023-04-10T05:14:10;17.42;;;9.20;;
68225;SDS011;55045;49.410;11.030;2023-04-10T05:17:32;19.48;;;8.93;;
68225;SDS011;55045;49.410;11.030;2023-04-10T05:20:58;20.67;;;8.82;;
68225;SDS011;55045;49.410;11.030;2023-04-10T05:24:25;23.80;;;10.80;;
68225;SDS011;55045;49.410;11.030;2023-04-10T05:27:49;21.85;;;9.60;;
68225;SDS011;55045;49.410;11.030;2023-04-10T05:31:03;20.42;;;9.98;;
68225;SDS011;55045;49.410;11.030;2023-04-10T05:34:25;27.67;;;12.35;;
68225;SDS011;55045;49.410;11.030;2023-04-10T05:37:45;21.73;;;10.25;;
68225;SDS011;55045;49.410;11.030;2023-04-10T05:41:20;21.45;;;11.23;;
68225;SDS011;55045;49.410;11.030;2023-04-10T05:44:48;22.67;;;11.67;;
68225;SDS011;55045;49.410;11.030;2023-04-10T05:48:29;23.13;;;11.35;;
68225;SDS011;55045;49.410;11.030;2023-04-10T05:51:45;18.10;;;8.23;;
68225;SDS011;55045;49.410;11.030;2023-04-10T05:55:01;24.27;;;12.07;;
68225;SDS011;55045;49.410;11.030;2023-04-10T05:58:23;19.35;;;8.75;;
68225;SDS011;55045;49.410;11.030;2023-04-10T06:01:50;18.63;;;8.70;;
68225;SDS011;55045;49.410;11.030;2023-04-10T06:04:54;17.98;;;8.57;;
68225;SDS011;55045;49.410;11.030;2023-04-10T06:07:58;19.75;;;8.70;;
68225;SDS011;55045;49.410;11.030;2023-04-10T06:11:02;17.55;;;9.07;;
68225;SDS011;55045;49.410;11.030;2023-04-10T06:14:06;19.92;;;9.07;;
68225;SDS011;55045;49.410;11.030;2023-04-10T06:17:15;18.80;;;8.30;;
68225;SDS011;55045;49.410;11.030;2023-04-10T06:20:19;18.52;;;10.57;;
68225;SDS011;55045;49.410;11.030;2023-04-10T06:23:24;16.23;;;7.85;;
68225;SDS011;55045;49.410;11.030;2023-04-10T06:26:28;16.25;;;8.40;;
68225;SDS011;55045;49.410;11.030;2023-04-10T06:29:32;16.02;;;7.60;;
68225;SDS011;55045;49.410;11.030;2023-04-10T06:32:35;21.40;;;9.75;;
68225;SDS011;55045;49.410;11.030;2023-04-10T06:35:40;14.57;;;7.47;;
68225;SDS011;55045;49.410;11.030;2023-04-10T06:38:44;16.48;;;8.50;;
68225;SDS011;55045;49.410;11.030;2023-04-10T06:41:47;17.80;;;9.88;;
68225;SDS011;55045;49.410;11.030;2023-04-10T06:45:03;14.10;;;8.02;;
68225;SDS011;55045;49.410;11.030;2023-04-10T06:48:07;13.80;;;7.53;;
68225;SDS011;55045;49.410;11.030;2023-04-10T06:51:11;18.05;;;9.43;;
68225;SDS011;55045;49.410;11.030;2023-04-10T06:54:15;17.13;;;9.13;;
68225;SDS011;55045;49.410;11.030;2023-04-10T06:57:18;15.20;;;8.60;;
68225;SDS011;55045;49.410;11.030;2023-04-10T07:00:22;13.60;;;7.22;;
68225;SDS011;55045;49.410;11.030;2023-04-10T07:03:25;15.77;;;7.90;;
68225;SDS011;55045;49.410;11.030;2023-04-10T07:06:30;17.27;;;7.40;;
68225;SDS011;55045;49.410;11.030;2023-04-10T07:09:33;13.18;;;7.18;;
68225;SDS011;55045;49.410;11.030;2023-04-10T07:12:36;15.57;;;7.32;;
68225;SDS011;55045;49.410;11.030;2023-04-10T07:15:39;19.08;;;8.82;;
68225;SDS011;55045;49.410;11.030;2023-04-10T07:18:42;12.80;;;6.88;;
68225;SDS011;55045;49.410;11.030;2023-04-10T07:21:49;15.75;;;6.93;;
68225;SDS011;55045;49.410;11.030;2023-04-10T07:24:52;12.05;;;7.47;;
68225;SDS011;55045;49.410;11.030;2023-04-10T07:27:55;11.45;;;6.35;;
68225;SDS011;55045;49.410;11.030;2023-04-10T07:30:58;10.88;;;6.15;;
68225;SDS011;55045;49.410;11.030;2023-04-10T07:34:02;9.80;;;5.30;;
68225;SDS011;55045;49.410;11.030;2023-04-10T07:37:06;12.43;;;6.78;;
68225;SDS011;55045;49.410;11.030;2023-04-10T07:40:10;13.75;;;5.82;;
68225;SDS011;55045;49.410;11.030;2023-04-10T07:43:14;13.57;;;7.07;;
68225;SDS011;55045;49.410;11.030;2023-04-10T07:46:17;10.50;;;6.07;;
68225;SDS011;55045;49.410;11.030;2023-04-10T07:49:21;9.48;;;5.25;;
68225;SDS011;55045;49.410;11.030;2023-04-10T07:52:26;6.82;;;4.45;;
68225;SDS011;55045;49.410;11.030;2023-04-10T07:55:31;12.18;;;6.65;;
68225;SDS011;55045;49.410;11.030;2023-04-10T07:58:39;12.25;;;6.40;;
68225;SDS011;55045;49.410;11.030;2023-04-10T08:01:42;7.95;;;5.28;;
68225;SDS011;55045;49.410;11.030;2023-04-10T08:04:45;9.02;;;5.38;;
68225;SDS011;55045;49.410;11.030;2023-04-10T08:07:50;14.45;;;6.25;;
68225;SDS011;55045;49.410;11.030;2023-04-10T08:10:53;9.43;;;5.65;;
68225;SDS011;55045;49.410;11.030;2023-04-10T08:13:56;9.90;;;5.35;;
68225;SDS011;55045;49.410;11.030;2023-04-10T08:17:02;13.55;;;7.38;;
68225;SDS011;55045;49.410;11.030;2023-04-10T08:20:07;10.50;;;5.97;;
68225;SDS011;55045;49.410;11.030;2023-04-10T08:23:12;12.73;;;5.78;;
68225;SDS011;55045;49.410;11.030;2023-04-10T08:26:21;10.65;;;5.85;;
68225;SDS011;55045;49.410;11.030;2023-04-10T08:29:26;8.57;;;5.68;;
68225;SDS011;55045;49.410;11.030;2023-04-10T08:32:30;10.07;;;6.03;;
68225;SDS011;55045;49.410;11.030;2023-04-10T08:35:33;10.27;;;6.38;;
68225;SDS011;55045;49.410;11.030;2023-04-10T08:38:37;9.40;;;5.22;;
68225;SDS011;55045;49.410;11.030;2023-04-10T08:41:41;9.18;;;5.72;;
68225;SDS011;55045;49.410;11.030;2023-04-10T08:44:44;6.22;;;4.18;;
68225;SDS011;55045;49.410;11.030;2023-04-10T08:47:50;8.20;;;4.78;;
68225;SDS011;55045;49.410;11.030;2023-04-10T08:50:56;6.13;;;3.95;;
68225;SDS011;55045;49.410;11.030;2023-04-10T08:54:05;5.05;;;2.83;;
68225;SDS011;55045;49.410;11.030;2023-04-10T08:57:09;6.65;;;4.47;;
68225;SDS011;55045;49.410;11.030;2023-04-10T09:00:19;10.77;;;5.85;;
68225;SDS011;55045;49.410;11.030;2023-04-10T09:03:24;6.70;;;4.45;;
68225;SDS011;55045;49.410;11.030;2023-04-10T09:06:29;10.40;;;5.30;;
68225;SDS011;55045;49.410;11.030;2023-04-10T09:09:34;6.93;;;3.83;;
68225;SDS011;55045;49.410;11.030;2023-04-10T09:12:43;8.18;;;3.92;;
68225;SDS011;55045;49.410;11.030;2023-04-10T09:15:54;8.40;;;5.25;;
68225;SDS011;55045;49.410;11.030;2023-04-10T09:18:58;8.30;;;4.00;;
68225;SDS011;55045;49.410;11.030;2023-04-10T09:22:05;9.90;;;5.55;;
68225;SDS011;55045;49.410;11.030;2023-04-10T09:25:18;6.70;;;4.43;;
68225;SDS011;55045;49.410;11.030;2023-04-10T09:28:31;6.57;;;3.65;;
68225;SDS011;55045;49.410;11.030;2023-04-10T09:34:58;9.10;;;4.75;;
68225;SDS011;55045;49.410;11.030;2023-04-10T09:38:12;5.47;;;3.47;;
68225;SDS011;55045;49.410;11.030;2023-04-10T09:41:17;6.57;;;3.67;;
68225;SDS011;55045;49.410;11.030;2023-04-10T09:44:27;7.03;;;3.63;;
68225;SDS011;55045;49.410;11.030;2023-04-10T09:47:32;6.30;;;4.65;;
68225;SDS011;55045;49.410;11.030;2023-04-10T09:50:36;6.60;;;3.85;;
68225;SDS011;55045;49.410;11.030;2023-04-10T09:53:47;7.57;;;3.65;;
68225;SDS011;55045;49.410;11.030;2023-04-10T09:56:51;7.38;;;4.53;;
68225;SDS011;55045;49.410;11.030;2023-04-10T09:59:58;5.35;;;3.45;;
68225;SDS011;55045;49.410;11.030;2023-04-10T10:03:07;4.82;;;3.92;;
68225;SDS011;55045;49.410;11.030;2023-04-10T10:06:13;4.28;;;2.38;;
68225;SDS011;55045;49.410;11.030;2023-04-10T10:09:17;6.03;;;3.83;;
68225;SDS011;55045;49.410;11.030;2023-04-10T10:12:21;6.47;;;3.40;;
68225;SDS011;55045;49.410;11.030;2023-04-10T10:15:30;4.68;;;3.30;;
68225;SDS011;55045;49.410;11.030;2023-04-10T10:18:38;6.93;;;3.72;;
68225;SDS011;55045;49.410;11.030;2023-04-10T10:21:48;2.83;;;2.15;;
68225;SDS011;55045;49.410;11.030;2023-04-10T10:24:53;5.25;;;3.67;;
68225;SDS011;55045;49.410;11.030;2023-04-10T10:27:58;6.00;;;4.10;;
68225;SDS011;55045;49.410;11.030;2023-04-10T10:31:04;4.20;;;3.13;;
68225;SDS011;55045;49.410;11.030;2023-04-10T10:34:08;6.70;;;4.25;;
68225;SDS011;55045;49.410;11.030;2023-04-10T10:37:13;6.03;;;4.13;;
68225;SDS011;55045;49.410;11.030;2023-04-10T10:40:19;3.88;;;2.28;;
68225;SDS011;55045;49.410;11.030;2023-04-10T10:43:33;7.65;;;4.03;;
68225;SDS011;55045;49.410;11.030;2023-04-10T10:46:41;9.85;;;4.95;;
68225;SDS011;55045;49.410;11.030;2023-04-10T10:49:50;9.00;;;4.30;;
68225;SDS011;55045;49.410;11.030;2023-04-10T10:52:55;5.00;;;2.95;;
68225;SDS011;55045;49.410;11.030;2023-04-10T10:56:00;5.38;;;3.55;;
68225;SDS011;55045;49.410;11.030;2023-04-10T10:59:54;9.88;;;6.07;;
68225;SDS011;55045;49.410;11.030;2023-04-10T11:06:48;4.03;;;2.90;;
68225;SDS011;55045;49.410;11.030;2023-04-10T11:09:54;6.57;;;4.10;;
68225;SDS011;55045;49.410;11.030;2023-04-10T11:13:14;7.38;;;3.08;;
68225;SDS011;55045;49.410;11.030;2023-04-10T11:16:19;3.95;;;2.90;;
68225;SDS011;55045;49.410;11.030;2023-04-10T11:19:22;4.75;;;3.03;;
68225;SDS011;55045;49.410;11.030;2023-04-10T11:22:27;4.28;;;2.55;;
68225;SDS011;55045;49.410;11.030;2023-04-10T11:25:45;4.28;;;3.00;;
68225;SDS011;55045;49.410;11.030;2023-04-10T11:28:50;4.35;;;3.45;;
68225;SDS011;55045;49.410;11.030;2023-04-10T11:31:54;4.15;;;3.22;;
68225;SDS011;55045;49.410;11.030;2023-04-10T11:34:58;4.53;;;2.60;;
68225;SDS011;55045;49.410;11.030;2023-04-10T11:38:11;3.47;;;2.67;;
68225;SDS011;55045;49.410;11.030;2023-04-10T11:41:17;4.88;;;2.83;;
68225;SDS011;55045;49.410;11.030;2023-04-10T11:44:26;6.47;;;3.22;;
68225;SDS011;55045;49.410;11.030;2023-04-10T11:47:31;3.58;;;2.90;;
68225;SDS011;55045;49.410;11.030;2023-04-10T11:50:34;4.65;;;2.90;;
68225;SDS011;55045;49.410;11.030;2023-04-10T11:53:37;3.90;;;2.70;;
68225;SDS011;55045;49.410;11.030;2023-04-10T11:56:43;4.32;;;2.83;;
68225;SDS011;55045;49.410;11.030;2023-04-10T11:59:48;4.38;;;2.42;;
68225;SDS011;55045;49.410;11.030;2023-04-10T12:02:52;4.35;;;2.78;;
68225;SDS011;55045;49.410;11.030;2023-04-10T12:05:55;4.97;;;2.33;;
68225;SDS011;55045;49.410;11.030;2023-04-10T12:08:59;3.83;;;2.67;;
68225;SDS011;55045;49.410;11.030;2023-04-10T12:12:04;4.68;;;3.08;;
68225;SDS011;55045;49.410;11.030;2023-04-10T12:15:25;4.63;;;3.03;;
68225;SDS011;55045;49.410;11.030;2023-04-10T12:18:29;8.48;;;2.95;;
68225;SDS011;55045;49.410;11.030;2023-04-10T12:21:34;4.80;;;2.55;;
68225;SDS011;55045;49.410;11.030;2023-04-10T12:24:41;3.97;;;2.90;;
68225;SDS011;55045;49.410;11.030;2023-04-10T12:30:52;3.35;;;2.13;;
68225;SDS011;55045;49.410;11.030;2023-04-10T12:33:55;4.20;;;2.88;;
68225;SDS011;55045;49.410;11.030;2023-04-10T12:36:59;2.78;;;2.45;;
68225;SDS011;55045;49.410;11.030;2023-04-10T12:40:04;3.10;;;2.22;;
68225;SDS011;55045;49.410;11.030;2023-04-10T12:43:09;5.55;;;3.38;;
68225;SDS011;55045;49.410;11.030;2023-04-10T12:46:21;4.13;;;2.88;;
68225;SDS011;55045;49.410;11.030;2023-04-10T12:49:25;3.70;;;2.38;;
68225;SDS011;55045;49.410;11.030;2023-04-10T12:52:28;3.58;;;2.60;;
68225;SDS011;55045;49.410;11.030;2023-04-10T12:55:32;3.90;;;3.00;;
68225;SDS011;55045;49.410;11.030;2023-04-10T12:58:37;3.70;;;2.05;;
68225;SDS011;55045;49.410;11.030;2023-04-10T13:01:40;6.03;;;2.20;;
68225;SDS011;55045;49.410;11.030;2023-04-10T13:04:43;4.03;;;2.70;;
68225;SDS011;55045;49.410;11.030;2023-04-10T13:07:47;3.17;;;2.55;;
68225;SDS011;55045;49.410;11.030;2023-04-10T13:10:53;3.10;;;2.80;;
68225;SDS011;55045;49.410;11.030;2023-04-10T13:14:00;3.60;;;2.33;;
68225;SDS011;55045;49.410;11.030;2023-04-10T13:17:03;2.25;;;1.95;;
68225;SDS011;55045;49.410;11.030;2023-04-10T13:20:07;2.95;;;2.40;;
68225;SDS011;55045;49.410;11.030;2023-04-10T13:23:11;2.90;;;1.85;;
68225;SDS011;55045;49.410;11.030;2023-04-10T13:26:15;2.10;;;1.83;;
68225;SDS011;55045;49.410;11.030;2023-04-10T13:29:19;2.05;;;1.60;;
68225;SDS011;55045;49.410;11.030;2023-04-10T13:32:22;3.92;;;2.58;;
68225;SDS011;55045;49.410;11.030;2023-04-10T13:35:26;4.28;;;2.95;;
68225;SDS011;55045;49.410;11.030;2023-04-10T13:38:29;3.35;;;2.53;;
68225;SDS011;55045;49.410;11.030;2023-04-10T13:41:32;5.55;;;2.78;;
68225;SDS011;55045;49.410;11.030;2023-04-10T13:44:37;3.88;;;2.30;;
68225;SDS011;55045;49.410;11.030;2023-04-10T13:47:40;2.47;;;1.45;;
68225;SDS011;55045;49.410;11.030;2023-04-10T13:50:43;2.47;;;2.20;;
68225;SDS011;55045;49.410;11.030;2023-04-10T13:53:46;3.30;;;2.58;;
68225;SDS011;55045;49.410;11.030;2023-04-10T13:56:49;3.58;;;2.72;;
68225;SDS011;55045;49.410;11.030;2023-04-10T13:59:56;4.00;;;2.65;;
68225;SDS011;55045;49.410;11.030;2023-04-10T14:02:59;3.05;;;2.47;;
68225;SDS011;55045;49.410;11.030;2023-04-10T14:06:03;2.67;;;1.92;;
68225;SDS011;55045;49.410;11.030;2023-04-10T14:09:06;2.42;;;1.80;;
68225;SDS011;55045;49.410;11.030;2023-04-10T14:12:09;3.72;;;2.70;;
68225;SDS011;55045;49.410;11.030;2023-04-10T14:15:14;4.43;;;2.72;;
68225;SDS011;55045;49.410;11.030;2023-04-10T14:18:17;2.22;;;1.90;;
68225;SDS011;55045;49.410;11.030;2023-04-10T14:21:21;4.80;;;2.42;;
68225;SDS011;55045;49.410;11.030;2023-04-10T14:24:24;3.08;;;2.55;;
68225;SDS011;55045;49.410;11.030;2023-04-10T14:27:27;2.92;;;2.13;;
68225;SDS011;55045;49.410;11.030;2023-04-10T14:30:31;3.65;;;2.63;;
68225;SDS011;55045;49.410;11.030;2023-04-10T14:33:35;3.30;;;2.20;;
68225;SDS011;55045;49.410;11.030;2023-04-10T14:36:38;3.72;;;2.40;;
68225;SDS011;55045;49.410;11.030;2023-04-10T14:39:41;4.00;;;2.38;;
68225;SDS011;55045;49.410;11.030;2023-04-10T14:42:44;3.70;;;2.70;;
68225;SDS011;55045;49.410;11.030;2023-04-10T14:45:49;3.92;;;2.20;;
68225;SDS011;55045;49.410;11.030;2023-04-10T14:48:52;3.65;;;2.60;;
68225;SDS011;55045;49.410;11.030;2023-04-10T14:51:55;2.70;;;1.77;;
68225;SDS011;55045;49.410;11.030;2023-04-10T14:54:58;2.75;;;1.55;;
68225;SDS011;55045;49.410;11.030;2023-04-10T14:58:01;3.22;;;2.80;;
68225;SDS011;55045;49.410;11.030;2023-04-10T15:01:09;4.43;;;2.40;;
68225;SDS011;55045;49.410;11.030;2023-04-10T15:04:12;4.10;;;2.33;;
68225;SDS011;55045;49.410;11.030;2023-04-10T15:07:16;3.40;;;2.30;;
68225;SDS011;55045;49.410;11.030;2023-04-10T15:10:19;4.68;;;2.58;;
68225;SDS011;55045;49.410;11.030;2023-04-10T15:13:23;3.95;;;2.42;;
68225;SDS011;55045;49.410;11.030;2023-04-10T15:16:28;3.45;;;2.10;;
68225;SDS011;55045;49.410;11.030;2023-04-10T15:19:32;4.72;;;2.53;;
68225;SDS011;55045;49.410;11.030;2023-04-10T15:22:35;3.35;;;2.22;;
68225;SDS011;55045;49.410;11.030;2023-04-10T15:25:39;3.10;;;2.20;;
68225;SDS011;55045;49.410;11.030;2023-04-10T15:28:42;3.08;;;2.33;;
68225;SDS011;55045;49.410;11.030;2023-04-10T15:34:58;3.72;;;2.67;;
68225;SDS011;55045;49.410;11.030;2023-04-10T15:38:04;3.33;;;2.47;;
68225;SDS011;55045;49.410;11.030;2023-04-10T15:41:11;3.30;;;2.70;;
68225;SDS011;55045;49.410;11.030;2023-04-10T15:44:16;7.68;;;3.28;;
68225;SDS011;55045;49.410;11.030;2023-04-10T15:47:19;4.32;;;2.83;;
68225;SDS011;55045;49.410;11.030;2023-04-10T15:50:23;5.32;;;3.72;;
68225;SDS011;55045;49.410;11.030;2023-04-10T15:53:27;3.78;;;2.85;;
68225;SDS011;55045;49.410;11.030;2023-04-10T15:56:31;8.18;;;3.28;;
68225;SDS011;55045;49.410;11.030;2023-04-10T15:59:35;3.70;;;3.00;;
68225;SDS011;55045;49.410;11.030;2023-04-10T16:02:41;3.88;;;2.60;;
68225;SDS011;55045;49.410;11.030;2023-04-10T16:05:47;3.25;;;2.05;;
68225;SDS011;55045;49.410;11.030;2023-04-10T16:08:50;7.50;;;3.72;;
68225;SDS011;55045;49.410;11.030;2023-04-10T16:11:54;4.43;;;3.10;;
68225;SDS011;55045;49.410;11.030;2023-04-10T16:14:58;4.05;;;2.80;;
68225;SDS011;55045;49.410;11.030;2023-04-10T16:18:02;3.90;;;2.88;;
68225;SDS011;55045;49.410;11.030;2023-04-10T16:21:08;4.10;;;2.97;;
68225;SDS011;55045;49.410;11.030;2023-04-10T16:24:11;3.78;;;2.50;;
68225;SDS011;55045;49.410;11.030;2023-04-10T16:27:15;4.10;;;2.55;;
68225;SDS011;55045;49.410;11.030;2023-04-10T16:30:18;3.53;;;2.40;;
68225;SDS011;55045;49.410;11.030;2023-04-10T16:33:22;2.58;;;1.92;;
68225;SDS011;55045;49.410;11.030;2023-04-10T16:36:26;4.95;;;2.78;;
68225;SDS011;55045;49.410;11.030;2023-04-10T16:39:29;3.35;;;2.70;;
68225;SDS011;55045;49.410;11.030;2023-04-10T16:42:33;4.68;;;2.50;;
68225;SDS011;55045;49.410;11.030;2023-04-10T16:45:36;3.83;;;2.40;;
68225;SDS011;55045;49.410;11.030;2023-04-10T16:48:39;3.90;;;2.40;;
68225;SDS011;55045;49.410;11.030;2023-04-10T16:51:44;4.18;;;2.72;;
68225;SDS011;55045;49.410;11.030;2023-04-10T16:54:47;8.35;;;3.42;;
68225;SDS011;55045;49.410;11.030;2023-04-10T16:57:50;5.07;;;3.05;;
68225;SDS011;55045;49.410;11.030;2023-04-10T17:00:54;5.55;;;3.03;;
68225;SDS011;55045;49.410;11.030;2023-04-10T17:03:57;5.15;;;2.47;;
68225;SDS011;55045;49.410;11.030;2023-04-10T17:07:02;3.38;;;2.17;;
68225;SDS011;55045;49.410;11.030;2023-04-10T17:10:05;3.25;;;2.42;;
68225;SDS011;55045;49.410;11.030;2023-04-10T17:13:09;4.80;;;2.83;;
68225;SDS011;55045;49.410;11.030;2023-04-10T17:16:12;5.82;;;2.63;;
68225;SDS011;55045;49.410;11.030;2023-04-10T17:19:16;3.70;;;2.00;;
68225;SDS011;55045;49.410;11.030;2023-04-10T17:22:20;3.45;;;2.53;;
68225;SDS011;55045;49.410;11.030;2023-04-10T17:25:30;7.28;;;2.67;;
68225;SDS011;55045;49.410;11.030;2023-04-10T17:28:34;5.22;;;3.72;;
68225;SDS011;55045;49.410;11.030;2023-04-10T17:31:38;3.13;;;2.25;;
68225;SDS011;55045;49.410;11.030;2023-04-10T17:34:41;5.28;;;3.22;;
68225;SDS011;55045;49.410;11.030;2023-04-10T17:37:46;4.93;;;3.40;;
68225;SDS011;55045;49.410;11.030;2023-04-10T17:40:49;6.07;;;3.72;;
68225;SDS011;55045;49.410;11.030;2023-04-10T17:43:52;5.10;;;3.35;;
68225;SDS011;55045;49.410;11.030;2023-04-10T17:46:56;6.57;;;3.92;;
68225;SDS011;55045;49.410;11.030;2023-04-10T17:49:59;7.03;;;3.85;;
68225;SDS011;55045;49.410;11.030;2023-04-10T17:53:04;6.85;;;3.88;;
68225;SDS011;55045;49.410;11.030;2023-04-10T17:56:07;7.53;;;3.85;;
68225;SDS011;55045;49.410;11.030;2023-04-10T17:59:18;9.48;;;6.63;;
68225;SDS011;55045;49.410;11.030;2023-04-10T18:02:21;9.18;;;5.80;;
68225;SDS011;55045;49.410;11.030;2023-04-10T18:05:25;12.57;;;9.25;;
68225;SDS011;55045;49.410;11.030;2023-04-10T18:08:29;4.45;;;3.25;;
68225;SDS011;55045;49.410;11.030;2023-04-10T18:11:32;5.43;;;3.50;;
68225;SDS011;55045;49.410;11.030;2023-04-10T18:14:36;4.80;;;3.15;;
68225;SDS011;55045;49.410;11.030;2023-04-10T18:17:39;14.65;;;5.63;;
68225;SDS011;55045;49.410;11.030;2023-04-10T18:20:42;7.00;;;3.80;;
68225;SDS011;55045;49.410;11.030;2023-04-10T18:23:47;7.15;;;3.75;;
68225;SDS011;55045;49.410;11.030;2023-04-10T18:26:50;4.43;;;3.50;;
68225;SDS011;55045;49.410;11.030;2023-04-10T18:29:55;4.47;;;3.33;;
68225;SDS011;55045;49.410;11.030;2023-04-10T18:32:58;6.10;;;3.70;;
68225;SDS011;55045;49.410;11.030;2023-04-10T18:36:05;6.22;;;3.83;;
68225;SDS011;55045;49.410;11.030;2023-04-10T18:39:10;6.68;;;3.28;;
68225;SDS011;55045;49.410;11.030;2023-04-10T18:42:14;4.35;;;3.20;;
68225;SDS011;55045;49.410;11.030;2023-04-10T18:45:17;3.17;;;2.75;;